Time;durP1;ratioP1;P1;durP2;ratioP2;P2;SDS_P1;SDS_P2;PMS_P1;PMS_P2;Temp;Humidity;BMP_temperature;BMP_pressure;BME280_temperature;BME280_humidity;BME280_pressure;Samples;Min_cycle;Max_cycle;Signal;HPM_P1;HPM_P2
2022/10/07 00:01:19;;;;;;;27.63;13.80;;;;;;;;;;5018736;28;20431;-85
2022/10/07 00:03:44;;;;;;;26.20;14.85;;;;;;;;;;5034717;28;20083;-84
2022/10/07 00:06:12;;;;;;;26.55;14.77;;;;;;;;;;5020317;28;20049;-85
2022/10/07 00:08:40;;;;;;;23.95;13.45;;;;;;;;;;5016403;28;20107;-84
2022/10/07 00:11:11;;;;;;;24.80;15.45;;;;;;;;;;5014322;28;20069;-82
2022/10/07 00:13:38;;;;;;;25.65;14.32;;;;;;;;;;5015284;28;20112;-84
2022/10/07 00:16:06;;;;;;;25.23;14.27;;;;;;;;;;5014371;28;20075;-83
2022/10/07 00:18:33;;;;;;;22.27;13.80;;;;;;;;;;5015155;28;20132;-85
2022/10/07 00:21:02;;;;;;;22.93;14.63;;;;;;;;;;5031589;28;20061;-85
2022/10/07 00:23:28;;;;;;;22.17;13.40;;;;;;;;;;5015806;28;20490;-83
2022/10/07 00:25:53;;;;;;;25.50;13.30;;;;;;;;;;5019530;28;20029;-83
2022/10/07 00:28:18;;;;;;;20.60;13.18;;;;;;;;;;5016444;28;20021;-83
2022/10/07 00:30:44;;;;;;;24.38;13.52;;;;;;;;;;5015908;28;20032;-83
2022/10/07 00:33:09;;;;;;;24.85;14.18;;;;;;;;;;4996316;28;20386;-85
2022/10/07 00:35:35;;;;;;;26.37;14.43;;;;;;;;;;4996885;28;20088;-84
2022/10/07 00:38:00;;;;;;;26.07;14.40;;;;;;;;;;5014703;28;20412;-85
2022/10/07 00:40:26;;;;;;;31.77;14.97;;;;;;;;;;4998591;28;20080;-83
2022/10/07 00:42:51;;;;;;;50.42;14.90;;;;;;;;;;5016265;28;20025;-84
2022/10/07 00:45:20;;;;;;;31.55;14.88;;;;;;;;;;4998003;28;20022;-85
2022/10/07 00:47:48;;;;;;;27.20;14.10;;;;;;;;;;4998776;28;20034;-85
2022/10/07 00:50:19;;;;;;;25.37;13.80;;;;;;;;;;5015516;28;20544;-83
2022/10/07 00:52:50;;;;;;;31.93;13.03;;;;;;;;;;4998016;28;20050;-85
2022/10/07 00:55:20;;;;;;;27.13;14.52;;;;;;;;;;5015255;28;20133;-84
2022/10/07 00:57:47;;;;;;;20.70;12.73;;;;;;;;;;4998017;28;20040;-84
2022/10/07 01:00:13;;;;;;;24.70;13.33;;;;;;;;;;4998547;28;20085;-82
2022/10/07 01:02:39;;;;;;;23.37;13.73;;;;;;;;;;4999062;28;20180;-84
2022/10/07 01:05:07;;;;;;;23.73;13.23;;;;;;;;;;4999519;28;20050;-83
2022/10/07 01:07:32;;;;;;;22.45;13.48;;;;;;;;;;5020091;28;20026;-84
2022/10/07 01:10:00;;;;;;;19.80;12.30;;;;;;;;;;5000817;28;20030;-84
2022/10/07 01:12:45;;;;;;;21.03;13.17;;;;;;;;;;5020984;28;20077;-84
2022/10/07 01:15:55;;;;;;;24.07;14.40;;;;;;;;;;5015072;28;20026;-81
2022/10/07 01:18:30;;;;;;;23.13;13.73;;;;;;;;;;4918068;29;20034;-78
2022/10/07 01:21:09;;;;;;;28.10;14.20;;;;;;;;;;5000094;28;20710;-78
2022/10/07 01:24:24;;;;;;;22.93;12.33;;;;;;;;;;5012914;28;20040;-78
2022/10/07 01:26:56;;;;;;;25.20;13.70;;;;;;;;;;5007762;28;20045;-78
2022/10/07 01:29:29;;;;;;;;;;;;;;;;;;5013154;28;20110;-78
2022/10/07 01:32:08;;;;;;;26.37;13.20;;;;;;;;;;4994948;28;19935;-78
2022/10/07 01:34:35;;;;;;;22.40;12.70;;;;;;;;;;5011700;28;20128;-78
2022/10/07 01:37:04;;;;;;;22.13;12.73;;;;;;;;;;4994516;28;20728;-78
2022/10/07 01:39:37;;;;;;;22.90;14.40;;;;;;;;;;4994813;28;20026;-78
2022/10/07 01:42:03;;;;;;;23.13;11.83;;;;;;;;;;5012283;28;20022;-78
2022/10/07 01:44:29;;;;;;;24.23;13.13;;;;;;;;;;5012588;28;20022;-78
2022/10/07 01:46:56;;;;;;;25.90;13.70;;;;;;;;;;4995098;28;20037;-78
2022/10/07 01:49:22;;;;;;;27.17;13.90;;;;;;;;;;5012551;28;20030;-79
2022/10/07 01:52:02;;;;;;;26.90;13.90;;;;;;;;;;4995811;28;20124;-78
2022/10/07 01:55:12;;;;;;;27.27;13.13;;;;;;;;;;5012610;28;20478;-78
2022/10/07 01:57:59;;;;;;;27.03;14.47;;;;;;;;;;4951768;29;20042;-77
2022/10/07 02:00:25;;;;;;;21.87;12.97;;;;;;;;;;4990880;28;20037;-78
2022/10/07 02:03:23;;;;;;;23.80;12.60;;;;;;;;;;4994829;28;20389;-78
2022/10/07 02:06:14;;;;;;;26.73;14.07;;;;;;;;;;4994675;28;20044;-78
2022/10/07 02:08:49;;;;;;;23.90;13.57;;;;;;;;;;4994245;28;20108;-78
2022/10/07 02:11:24;;;;;;;21.93;13.67;;;;;;;;;;4993844;28;20072;-78
2022/10/07 02:14:07;;;;;;;25.87;13.83;;;;;;;;;;5011802;28;20112;-78
2022/10/07 02:16:47;;;;;;;24.33;13.80;;;;;;;;;;4993955;28;20029;-78
2022/10/07 02:19:21;;;;;;;19.63;12.47;;;;;;;;;;4997927;28;20029;-78
2022/10/07 02:21:50;;;;;;;24.83;13.93;;;;;;;;;;5013406;28;20421;-78
2022/10/07 02:24:20;;;;;;;24.37;13.70;;;;;;;;;;5010636;28;20052;-78
2022/10/07 02:26:48;;;;;;;24.33;13.37;;;;;;;;;;4993501;28;20374;-78
2022/10/07 02:29:17;;;;;;;23.00;13.67;;;;;;;;;;4993231;28;20048;-78
2022/10/07 02:31:44;;;;;;;24.47;13.57;;;;;;;;;;4993723;28;20100;-78
2022/10/07 02:34:14;;;;;;;22.53;12.37;;;;;;;;;;5010957;28;20037;-77
2022/10/07 02:36:45;;;;;;;19.53;11.50;;;;;;;;;;5011046;28;20444;-77
2022/10/07 02:39:11;;;;;;;27.43;13.40;;;;;;;;;;4993360;28;20417;-78
2022/10/07 02:41:58;;;;;;;24.17;13.53;;;;;;;;;;4993600;28;20030;-77
2022/10/07 02:44:29;;;;;;;25.23;13.70;;;;;;;;;;4993809;28;20021;-77
2022/10/07 02:47:04;;;;;;;21.23;13.43;;;;;;;;;;5011221;28;20034;-78
2022/10/07 02:49:31;;;;;;;24.23;12.67;;;;;;;;;;5011498;28;20041;-79
2022/10/07 02:52:04;;;;;;;24.23;13.57;;;;;;;;;;4993594;28;20030;-77
2022/10/07 02:54:42;;;;;;;22.83;12.83;;;;;;;;;;4977056;28;20038;-77
2022/10/07 02:57:11;;;;;;;21.73;12.07;;;;;;;;;;4993088;28;20032;-77
2022/10/07 02:59:38;;;;;;;21.13;12.53;;;;;;;;;;5011830;28;20462;-77
2022/10/07 03:02:10;;;;;;;23.87;13.43;;;;;;;;;;5011552;28;20029;-78
2022/10/07 03:04:35;;;;;;;21.98;12.73;;;;;;;;;;4993252;28;20120;-77
2022/10/07 03:07:01;;;;;;;22.03;12.93;;;;;;;;;;4993089;28;20105;-77
2022/10/07 03:09:28;;;;;;;24.87;12.23;;;;;;;;;;5005323;28;20025;-77
2022/10/07 03:11:53;;;;;;;23.97;12.20;;;;;;;;;;5030476;28;20071;-77
2022/10/07 03:14:19;;;;;;;18.90;12.37;;;;;;;;;;5030275;28;20025;-78
2022/10/07 03:16:44;;;;;;;23.53;12.17;;;;;;;;;;5012934;28;20068;-77
2022/10/07 03:19:10;;;;;;;26.77;13.10;;;;;;;;;;5030602;28;20056;-77
2022/10/07 03:21:35;;;;;;;25.07;13.63;;;;;;;;;;5012721;28;20541;-77
2022/10/07 03:24:03;;;;;;;29.83;14.07;;;;;;;;;;5029667;28;20100;-77
2022/10/07 03:26:32;;;;;;;28.90;14.27;;;;;;;;;;5010601;28;20159;-77
2022/10/07 03:28:59;;;;;;;22.27;12.53;;;;;;;;;;5010204;28;20034;-77
2022/10/07 03:31:26;;;;;;;31.77;14.57;;;;;;;;;;4992647;28;20025;-77
2022/10/07 03:33:54;;;;;;;36.63;15.90;;;;;;;;;;5010670;28;20540;-77
2022/10/07 03:36:20;;;;;;;23.07;13.30;;;;;;;;;;4992002;28;20029;-76
2022/10/07 03:38:45;;;;;;;26.13;14.10;;;;;;;;;;4976319;28;20030;-76
2022/10/07 03:41:10;;;;;;;31.67;14.13;;;;;;;;;;5009890;28;20041;-77
2022/10/07 03:43:36;;;;;;;32.87;15.10;;;;;;;;;;5010473;28;20028;-77
2022/10/07 03:46:02;;;;;;;29.13;14.50;;;;;;;;;;5010304;28;20026;-77
2022/10/07 03:48:29;;;;;;;28.97;15.27;;;;;;;;;;5010492;28;20024;-77
2022/10/07 03:50:56;;;;;;;26.30;14.53;;;;;;;;;;4992650;28;20100;-77
2022/10/07 03:53:23;;;;;;;31.37;14.13;;;;;;;;;;5010149;28;20022;-77
2022/10/07 03:55:49;;;;;;;25.20;13.88;;;;;;;;;;5010150;28;20033;-77
2022/10/07 03:58:15;;;;;;;28.63;14.50;;;;;;;;;;4991438;28;20029;-77
2022/10/07 04:00:41;;;;;;;29.23;15.27;;;;;;;;;;5010218;28;20113;-77
2022/10/07 04:03:08;;;;;;;25.80;14.10;;;;;;;;;;4992487;28;20414;-77
2022/10/07 04:05:35;;;;;;;30.33;15.07;;;;;;;;;;4992995;28;20485;-77
2022/10/07 04:08:00;;;;;;;23.67;13.30;;;;;;;;;;5010765;28;20109;-79
2022/10/07 04:10:26;;;;;;;29.73;14.60;;;;;;;;;;5010157;28;20125;-76
2022/10/07 04:12:52;;;;;;;29.90;14.80;;;;;;;;;;5010117;28;20056;-77
2022/10/07 04:15:18;;;;;;;29.57;13.53;;;;;;;;;;5009646;28;20497;-77
2022/10/07 04:17:46;;;;;;;29.83;14.97;;;;;;;;;;4992349;28;20442;-77
2022/10/07 04:20:12;;;;;;;27.03;13.53;;;;;;;;;;4991996;28;20030;-77
2022/10/07 04:22:38;;;;;;;31.87;15.10;;;;;;;;;;5009971;28;20029;-77
2022/10/07 04:27:55;;;;;;;37.80;16.83;;;;;;;;;;5010296;28;20033;-77
2022/10/07 04:30:21;;;;;;;30.33;14.20;;;;;;;;;;5009554;28;20026;-78
2022/10/07 04:32:49;;;;;;;27.37;13.03;;;;;;;;;;5010056;28;20065;-78
2022/10/07 04:35:18;;;;;;;24.87;13.10;;;;;;;;;;4992262;28;20385;-78
2022/10/07 04:37:46;;;;;;;27.47;14.13;;;;;;;;;;5009577;28;20129;-77
2022/10/07 04:40:12;;;;;;;26.53;13.80;;;;;;;;;;4991917;28;20061;-77
2022/10/07 04:45:21;;;;;;;26.77;12.87;;;;;;;;;;5009955;28;20025;-78
2022/10/07 04:47:47;;;;;;;28.13;14.30;;;;;;;;;;5009791;28;20026;-77
2022/10/07 04:50:12;;;;;;;26.57;13.97;;;;;;;;;;5009299;28;20046;-77
2022/10/07 04:52:45;;;;;;;28.93;14.63;;;;;;;;;;5009428;28;20026;-78
2022/10/07 04:55:13;;;;;;;38.03;19.13;;;;;;;;;;5009820;28;20025;-78
2022/10/07 04:57:39;;;;;;;34.58;18.08;;;;;;;;;;5011080;28;20029;-78
2022/10/07 05:00:06;;;;;;;33.00;17.75;;;;;;;;;;5005909;28;20053;-77
2022/10/07 05:02:32;;;;;;;42.10;18.47;;;;;;;;;;5010814;28;20060;-79
2022/10/07 05:04:58;;;;;;;37.13;18.17;;;;;;;;;;5013083;28;20018;-76
2022/10/07 05:07:25;;;;;;;41.38;19.85;;;;;;;;;;5023061;28;20480;-77
2022/10/07 05:09:51;;;;;;;33.13;16.90;;;;;;;;;;5026588;28;20533;-76
2022/10/07 05:12:16;;;;;;;36.13;18.80;;;;;;;;;;5034451;28;20465;-76
2022/10/07 05:14:42;;;;;;;33.72;15.93;;;;;;;;;;5046464;28;20123;-78
2022/10/07 05:17:08;;;;;;;33.63;16.55;;;;;;;;;;5008787;28;20033;-77
2022/10/07 05:19:34;;;;;;;31.87;16.43;;;;;;;;;;5013159;28;20075;-75
2022/10/07 05:22:00;;;;;;;34.57;16.83;;;;;;;;;;5010952;28;20426;-77
2022/10/07 05:24:25;;;;;;;33.73;18.93;;;;;;;;;;5006701;28;20025;-78
2022/10/07 05:26:51;;;;;;;37.22;19.23;;;;;;;;;;5028060;28;20033;-77
2022/10/07 05:29:16;;;;;;;31.67;17.13;;;;;;;;;;5008353;28;20076;-75
2022/10/07 05:31:42;;;;;;;32.30;17.25;;;;;;;;;;5028398;28;20025;-76
2022/10/07 05:34:07;;;;;;;33.17;18.70;;;;;;;;;;4996804;28;20025;-77
2022/10/07 05:36:33;;;;;;;36.47;18.08;;;;;;;;;;5025799;28;20501;-77
2022/10/07 05:38:59;;;;;;;33.53;18.58;;;;;;;;;;4997892;28;20036;-74
2022/10/07 05:41:27;;;;;;;31.67;16.33;;;;;;;;;;5026917;28;20025;-75
2022/10/07 05:43:53;;;;;;;26.63;16.23;;;;;;;;;;4998523;28;20125;-75
2022/10/07 05:46:22;;;;;;;42.97;20.58;;;;;;;;;;5003530;28;20117;-72
2022/10/07 05:48:51;;;;;;;33.05;17.35;;;;;;;;;;5017067;28;20649;-76
2022/10/07 05:51:18;;;;;;;33.22;17.75;;;;;;;;;;5002312;28;20574;-75
2022/10/07 05:53:45;;;;;;;27.88;16.73;;;;;;;;;;5003335;28;20144;-75
2022/10/07 05:56:14;;;;;;;33.60;17.38;;;;;;;;;;5008166;28;20034;-73
2022/10/07 05:58:40;;;;;;;35.78;17.38;;;;;;;;;;4997476;28;20044;-77
2022/10/07 06:01:11;;;;;;;29.20;16.10;;;;;;;;;;4996148;28;20088;-76
2022/10/07 06:03:37;;;;;;;29.42;15.68;;;;;;;;;;5010323;28;20053;-77
2022/10/07 06:06:03;;;;;;;27.40;14.98;;;;;;;;;;4975120;28;20148;-74
2022/10/07 06:08:31;;;;;;;29.00;15.68;;;;;;;;;;4992522;28;20040;-75
2022/10/07 06:13:52;;;;;;;24.20;13.40;;;;;;;;;;4986303;28;20088;-77
2022/10/07 06:16:19;;;;;;;34.35;15.32;;;;;;;;;;4987458;28;20157;-77
2022/10/07 06:18:45;;;;;;;27.40;13.93;;;;;;;;;;4987423;28;20270;-76
2022/10/07 06:21:12;;;;;;;28.75;16.00;;;;;;;;;;4992650;28;20038;-76
2022/10/07 06:23:37;;;;;;;27.95;14.40;;;;;;;;;;4981482;28;20034;-74
2022/10/07 06:26:09;;;;;;;28.15;13.85;;;;;;;;;;4978774;28;20057;-74
2022/10/07 06:28:39;;;;;;;22.30;14.82;;;;;;;;;;4978349;28;20077;-74
2022/10/07 06:31:09;;;;;;;26.35;14.52;;;;;;;;;;4989617;28;20046;-77
2022/10/07 06:33:35;;;;;;;26.38;14.43;;;;;;;;;;4970710;28;20046;-75
2022/10/07 06:36:02;;;;;;;25.08;13.40;;;;;;;;;;4990694;28;20057;-74
2022/10/07 06:38:28;;;;;;;23.48;13.73;;;;;;;;;;4992884;28;20080;-76
2022/10/07 06:40:57;;;;;;;26.55;12.23;;;;;;;;;;4990311;28;20117;-73
2022/10/07 06:43:25;;;;;;;31.02;13.35;;;;;;;;;;5007427;28;20502;-75
2022/10/07 06:45:57;;;;;;;22.33;12.60;;;;;;;;;;4996117;28;20025;-76
2022/10/07 06:48:25;;;;;;;22.13;13.07;;;;;;;;;;4979208;28;20063;-75
2022/10/07 06:50:52;;;;;;;22.48;12.82;;;;;;;;;;5010615;28;20085;-76
2022/10/07 06:53:18;;;;;;;27.40;11.75;;;;;;;;;;5010209;28;20053;-71
2022/10/07 06:55:44;;;;;;;21.50;12.27;;;;;;;;;;4991007;28;20125;-74
2022/10/07 06:58:09;;;;;;;21.00;11.35;;;;;;;;;;4992804;28;20048;-74
2022/10/07 07:00:35;;;;;;;28.50;13.23;;;;;;;;;;5010450;28;20037;-74
2022/10/07 07:03:01;;;;;;;21.60;12.63;;;;;;;;;;5007297;28;20304;-74
2022/10/07 07:05:39;;;;;;;23.50;13.23;;;;;;;;;;4992921;28;20030;-73
2022/10/07 07:08:04;;;;;;;21.95;12.13;;;;;;;;;;4990576;28;20064;-72
2022/10/07 07:10:35;;;;;;;21.17;12.10;;;;;;;;;;4987839;28;20691;-73
2022/10/07 07:13:01;;;;;;;19.65;12.27;;;;;;;;;;5006291;28;20067;-75
2022/10/07 07:15:26;;;;;;;20.27;11.50;;;;;;;;;;4991987;28;20112;-74
2022/10/07 07:17:52;;;;;;;23.35;12.65;;;;;;;;;;5009151;28;20026;-74
2022/10/07 07:20:17;;;;;;;19.63;11.98;;;;;;;;;;4990155;28;20037;-75
2022/10/07 07:22:43;;;;;;;21.95;13.57;;;;;;;;;;4993694;28;20469;-75
2022/10/07 07:25:08;;;;;;;21.17;12.93;;;;;;;;;;5008471;28;20080;-75
2022/10/07 07:27:35;;;;;;;23.20;14.52;;;;;;;;;;5010005;28;20026;-76
2022/10/07 07:30:01;;;;;;;25.98;13.23;;;;;;;;;;5006794;28;20486;-75
2022/10/07 07:32:29;;;;;;;26.63;13.80;;;;;;;;;;5005268;28;20037;-75
2022/10/07 07:34:55;;;;;;;26.90;13.48;;;;;;;;;;4992855;28;20034;-75
2022/10/07 07:37:21;;;;;;;23.00;13.57;;;;;;;;;;4996904;28;20018;-75
2022/10/07 07:39:47;;;;;;;24.35;14.63;;;;;;;;;;4988550;28;20048;-75
2022/10/07 07:42:14;;;;;;;27.35;14.65;;;;;;;;;;4989916;28;20033;-76
2022/10/07 07:44:39;;;;;;;30.67;15.70;;;;;;;;;;4990071;28;20037;-75
2022/10/07 07:47:05;;;;;;;27.30;15.52;;;;;;;;;;4991545;28;20088;-75
2022/10/07 07:49:32;;;;;;;29.00;15.20;;;;;;;;;;4994694;28;20053;-74
2022/10/07 07:51:59;;;;;;;28.98;15.93;;;;;;;;;;4995709;28;20622;-74
2022/10/07 07:54:26;;;;;;;27.35;15.07;;;;;;;;;;5009980;28;20486;-74
2022/10/07 07:56:55;;;;;;;29.13;15.75;;;;;;;;;;4993913;28;20021;-74
2022/10/07 07:59:22;;;;;;;29.83;15.23;;;;;;;;;;5012929;28;20037;-75
2022/10/07 08:01:47;;;;;;;35.30;15.70;;;;;;;;;;5011691;28;20090;-74
2022/10/07 08:04:14;;;;;;;34.72;15.57;;;;;;;;;;5009618;28;20477;-76
2022/10/07 08:06:39;;;;;;;31.08;15.73;;;;;;;;;;4994039;28;20059;-74
2022/10/07 08:09:05;;;;;;;29.23;16.17;;;;;;;;;;4988125;28;20691;-75
2022/10/07 08:11:33;;;;;;;37.42;16.88;;;;;;;;;;4991735;28;20041;-74
2022/10/07 08:13:59;;;;;;;32.38;16.55;;;;;;;;;;4994839;28;20069;-74
2022/10/07 08:16:27;;;;;;;30.63;15.15;;;;;;;;;;5010061;28;20065;-75
2022/10/07 08:18:55;;;;;;;24.27;15.02;;;;;;;;;;5010680;28;20029;-75
2022/10/07 08:21:23;;;;;;;33.13;16.75;;;;;;;;;;4974717;28;20029;-75
2022/10/07 08:23:57;;;;;;;30.85;14.70;;;;;;;;;;4991543;28;20037;-75
2022/10/07 08:26:27;;;;;;;30.80;16.10;;;;;;;;;;5012020;28;20033;-79
2022/10/07 08:28:54;;;;;;;34.17;16.60;;;;;;;;;;5008183;28;20533;-76
2022/10/07 08:31:21;;;;;;;33.40;17.70;;;;;;;;;;4994775;28;20037;-75
2022/10/07 08:33:48;;;;;;;36.28;19.63;;;;;;;;;;4994003;28;20033;-77
2022/10/07 08:36:17;;;;;;;41.60;18.70;;;;;;;;;;4994937;28;20030;-77
2022/10/07 08:38:49;;;;;;;31.38;15.63;;;;;;;;;;5009806;28;20033;-77
2022/10/07 08:41:32;;;;;;;;;;;;;;;;;;5009151;28;20034;-75
2022/10/07 08:44:06;;;;;;;49.03;21.67;;;;;;;;;;5009884;28;19960;-79
2022/10/07 08:46:37;;;;;;;33.03;17.85;;;;;;;;;;5012466;28;20454;-77
2022/10/07 08:49:16;;;;;;;39.35;18.63;;;;;;;;;;5012810;28;20084;-73
2022/10/07 08:52:00;;;;;;;44.95;19.42;;;;;;;;;;4992298;28;20064;-77
2022/10/07 08:54:29;;;;;;;34.67;19.08;;;;;;;;;;4997130;28;20037;-78
2022/10/07 08:57:07;;;;;;;39.47;20.35;;;;;;;;;;5012956;28;20187;-74
2022/10/07 08:59:34;;;;;;;36.53;18.70;;;;;;;;;;5007207;28;20045;-76
2022/10/07 09:02:20;;;;;;;40.63;20.42;;;;;;;;;;5012889;28;20497;-75
2022/10/07 09:05:32;;;;;;;41.58;19.33;;;;;;;;;;5011203;28;20522;-76
2022/10/07 09:08:05;;;;;;;43.92;21.73;;;;;;;;;;4980109;28;20121;-76
2022/10/07 09:10:52;;;;;;;35.03;18.83;;;;;;;;;;4991562;28;20034;-77
2022/10/07 09:13:26;;;;;;;42.30;19.52;;;;;;;;;;5016452;28;20033;-76
2022/10/07 09:16:03;;;;;;;55.63;23.48;;;;;;;;;;4992738;28;20109;-75
2022/10/07 09:18:35;;;;;;;41.42;22.13;;;;;;;;;;4993886;28;20099;-77
2022/10/07 09:21:04;;;;;;;42.45;22.15;;;;;;;;;;5008041;28;20029;-74
2022/10/07 09:23:32;;;;;;;49.88;23.23;;;;;;;;;;5015359;28;20042;-75
2022/10/07 09:25:59;;;;;;;45.35;22.90;;;;;;;;;;4992949;28;20034;-77
2022/10/07 09:28:30;;;;;;;45.63;23.83;;;;;;;;;;4994080;28;20056;-80
2022/10/07 09:30:58;;;;;;;46.10;20.63;;;;;;;;;;4999735;28;20057;-78
2022/10/07 09:33:25;;;;;;;36.38;20.95;;;;;;;;;;4993555;28;20120;-81
2022/10/07 09:35:56;;;;;;;43.10;21.52;;;;;;;;;;5011976;28;20092;-76
2022/10/07 09:38:31;;;;;;;49.10;23.65;;;;;;;;;;4992907;28;20426;-77
2022/10/07 09:41:14;;;;;;;44.63;21.50;;;;;;;;;;5012728;28;20038;-75
2022/10/07 09:44:05;;;;;;;44.85;21.75;;;;;;;;;;5012385;28;20033;-76
2022/10/07 09:46:47;;;;;;;42.05;22.85;;;;;;;;;;5001352;28;20065;-75
2022/10/07 09:49:28;;;;;;;;;;;;;;;;;;4989824;28;20025;-75
2022/10/07 09:52:23;;;;;;;45.80;22.33;;;;;;;;;;4992993;28;20013;-78
2022/10/07 09:54:55;;;;;;;39.88;21.42;;;;;;;;;;5005047;28;20041;-73
2022/10/07 09:57:31;;;;;;;44.58;20.90;;;;;;;;;;4996331;28;20033;-76
2022/10/07 10:00:12;;;;;;;40.85;21.35;;;;;;;;;;4988060;28;20046;-74
2022/10/07 10:02:50;;;;;;;43.55;21.80;;;;;;;;;;4995089;28;20564;-74
2022/10/07 10:05:31;;;;;;;48.47;22.55;;;;;;;;;;5003456;28;20808;-77
2022/10/07 10:08:04;;;;;;;39.60;20.00;;;;;;;;;;4991017;28;20052;-75
2022/10/07 10:10:33;;;;;;;36.05;21.85;;;;;;;;;;4993058;28;20025;-78
2022/10/07 10:13:01;;;;;;;37.55;20.58;;;;;;;;;;5009841;28;20108;-75
2022/10/07 10:15:39;;;;;;;41.03;22.02;;;;;;;;;;4994895;28;20552;-79
2022/10/07 10:18:38;;;;;;;43.78;21.75;;;;;;;;;;4998857;28;20033;-76
2022/10/07 10:21:28;;;;;;;42.45;22.50;;;;;;;;;;5015134;28;20037;-76
2022/10/07 10:23:59;;;;;;;45.85;22.20;;;;;;;;;;4992266;28;20018;-72
2022/10/07 10:26:53;;;;;;;50.17;22.48;;;;;;;;;;5010795;28;20349;-76
2022/10/07 10:29:52;;;;;;;43.13;21.73;;;;;;;;;;4989485;28;20058;-79
2022/10/07 10:32:42;;;;;;;44.50;24.00;;;;;;;;;;4984407;28;20029;-76
2022/10/07 10:35:24;;;;;;;44.97;21.83;;;;;;;;;;5013274;28;20029;-74
2022/10/07 10:37:57;;;;;;;43.75;24.10;;;;;;;;;;5013758;28;20029;-77
2022/10/07 10:40:39;;;;;;;36.60;19.42;;;;;;;;;;4988142;28;20478;-75
2022/10/07 10:43:23;;;;;;;39.83;21.38;;;;;;;;;;4993967;28;20486;-75
2022/10/07 10:46:30;;;;;;;42.85;21.85;;;;;;;;;;4992254;28;20037;-76
2022/10/07 10:49:14;;;;;;;39.35;21.35;;;;;;;;;;5005862;28;20033;-74
2022/10/07 10:52:05;;;;;;;46.05;21.73;;;;;;;;;;4990020;28;20064;-75
2022/10/07 10:54:43;;;;;;;36.50;20.60;;;;;;;;;;5015344;28;20041;-74
2022/10/07 10:57:24;;;;;;;43.90;20.77;;;;;;;;;;5007613;28;20036;-74
2022/10/07 10:59:55;;;;;;;37.42;19.20;;;;;;;;;;4990530;28;20037;-75
2022/10/07 11:02:36;;;;;;;40.67;19.90;;;;;;;;;;4994966;28;20034;-74
2022/10/07 11:05:16;;;;;;;44.38;22.50;;;;;;;;;;5004097;28;20034;-75
2022/10/07 11:08:15;;;;;;;37.78;20.17;;;;;;;;;;4989684;28;20125;-74
2022/10/07 11:11:00;;;;;;;38.45;20.52;;;;;;;;;;4975162;28;20344;-73
2022/10/07 11:13:51;;;;;;;38.15;20.63;;;;;;;;;;4990245;28;20072;-75
2022/10/07 11:16:43;;;;;;;37.17;20.48;;;;;;;;;;4995871;28;20432;-74
2022/10/07 11:19:34;;;;;;;41.20;21.38;;;;;;;;;;4983411;28;20207;-75
2022/10/07 11:22:01;;;;;;;34.38;19.63;;;;;;;;;;4993451;28;20064;-74
2022/10/07 11:24:38;;;;;;;36.60;19.88;;;;;;;;;;4996860;28;20044;-76
2022/10/07 11:27:19;;;;;;;38.25;20.30;;;;;;;;;;5007920;28;20136;-73
2022/10/07 11:30:07;;;;;;;36.67;19.08;;;;;;;;;;5006898;28;20438;-77
2022/10/07 11:33:04;;;;;;;41.15;21.58;;;;;;;;;;4988247;28;20152;-75
2022/10/07 11:35:52;;;;;;;44.08;21.80;;;;;;;;;;5009832;28;20048;-76
2022/10/07 11:38:33;;;;;;;45.70;20.92;;;;;;;;;;4976678;28;20030;-75
2022/10/07 11:41:03;;;;;;;;;;;;;;;;;;4990801;28;20097;-74
2022/10/07 11:43:43;;;;;;;40.25;19.35;;;;;;;;;;4975399;28;20436;-74
2022/10/07 11:46:14;;;;;;;40.28;20.13;;;;;;;;;;4990383;28;20029;-73
2022/10/07 11:48:48;;;;;;;41.75;21.30;;;;;;;;;;4988563;28;20137;-74
2022/10/07 11:52:06;;;;;;;40.17;20.45;;;;;;;;;;4993189;28;20679;-74
2022/10/07 11:54:50;;;;;;;39.88;20.00;;;;;;;;;;4974202;28;20223;-75
2022/10/07 11:57:24;;;;;;;37.40;20.20;;;;;;;;;;5005628;28;20446;-74
2022/10/07 11:59:57;;;;;;;36.75;19.38;;;;;;;;;;4984542;28;20120;-75
2022/10/07 12:02:37;;;;;;;50.55;22.48;;;;;;;;;;4990556;28;20701;-73
2022/10/07 12:05:06;;;;;;;31.80;16.92;;;;;;;;;;4987341;28;20362;-75
2022/10/07 12:07:41;;;;;;;31.50;17.30;;;;;;;;;;4987050;28;20123;-75
2022/10/07 12:10:26;;;;;;;34.38;16.90;;;;;;;;;;4983875;28;20174;-74
2022/10/07 12:12:56;;;;;;;39.05;19.20;;;;;;;;;;4992774;28;20068;-75
2022/10/07 12:15:38;;;;;;;29.20;15.95;;;;;;;;;;5006872;28;20067;-73
2022/10/07 12:18:04;;;;;;;30.38;15.77;;;;;;;;;;4991311;28;20708;-75
2022/10/07 12:20:33;;;;;;;31.27;15.95;;;;;;;;;;5005400;28;20045;-76
2022/10/07 12:23:24;;;;;;;27.15;15.65;;;;;;;;;;5014922;28;20041;-75
2022/10/07 12:26:00;;;;;;;38.22;18.73;;;;;;;;;;5005342;28;20068;-76
2022/10/07 12:28:35;;;;;;;30.95;16.10;;;;;;;;;;4992214;28;20029;-77
2022/10/07 12:31:13;;;;;;;41.05;20.23;;;;;;;;;;5009141;28;20500;-75
2022/10/07 12:33:57;;;;;;;32.97;15.98;;;;;;;;;;5008978;28;20041;-74
2022/10/07 12:36:28;;;;;;;31.17;16.98;;;;;;;;;;5012491;28;20091;-78
2022/10/07 12:38:57;;;;;;;32.25;17.95;;;;;;;;;;4975829;28;20068;-74
2022/10/07 12:41:41;;;;;;;28.02;16.33;;;;;;;;;;5006870;28;20144;-77
2022/10/07 12:44:06;;;;;;;29.60;16.15;;;;;;;;;;5002296;28;20884;-75
2022/10/07 12:46:59;;;;;;;29.27;16.45;;;;;;;;;;5012996;28;20561;-75
2022/10/07 12:49:36;;;;;;;45.47;22.33;;;;;;;;;;4993429;28;20162;-76
2022/10/07 12:52:11;;;;;;;39.78;19.23;;;;;;;;;;4991298;28;20272;-73
2022/10/07 12:54:48;;;;;;;32.75;16.65;;;;;;;;;;4994754;28;20072;-74
2022/10/07 12:57:20;;;;;;;30.05;17.63;;;;;;;;;;5010238;28;20529;-75
2022/10/07 13:00:07;;;;;;;;;;;;;;;;;;4987855;28;20045;-76
2022/10/07 13:02:47;;;;;;;52.95;19.58;;;;;;;;;;4992294;28;19920;-74
2022/10/07 13:05:42;;;;;;;39.63;18.02;;;;;;;;;;5012521;28;20596;-75
2022/10/07 13:08:43;;;;;;;31.50;18.40;;;;;;;;;;4996883;28;20044;-74
2022/10/07 13:11:30;;;;;;;52.30;23.73;;;;;;;;;;4999014;28;20037;-74
2022/10/07 13:14:08;;;;;;;51.05;23.83;;;;;;;;;;5016298;28;20045;-74
2022/10/07 13:16:52;;;;;;;32.97;17.08;;;;;;;;;;5017578;28;20034;-74
2022/10/07 13:19:18;;;;;;;44.58;20.38;;;;;;;;;;5021039;28;20358;-76
2022/10/07 13:21:55;;;;;;;30.85;16.23;;;;;;;;;;5007114;28;20033;-75
2022/10/07 13:24:24;;;;;;;31.17;16.83;;;;;;;;;;5005462;28;20033;-73
2022/10/07 13:26:51;;;;;;;31.63;16.00;;;;;;;;;;4997659;28;20046;-73
2022/10/07 13:29:34;;;;;;;30.63;18.15;;;;;;;;;;5024139;28;20041;-77
2022/10/07 13:32:16;;;;;;;59.05;24.08;;;;;;;;;;4998816;28;20082;-74
2022/10/07 13:34:45;;;;;;;39.97;19.15;;;;;;;;;;5008663;28;20120;-74
2022/10/07 13:37:30;;;;;;;49.75;24.25;;;;;;;;;;5026482;28;20029;-78
2022/10/07 13:39:57;;;;;;;31.45;16.23;;;;;;;;;;4994824;28;20076;-76
2022/10/07 13:42:27;;;;;;;62.15;22.55;;;;;;;;;;4996048;28;20532;-76
2022/10/07 13:44:58;;;;;;;61.30;27.80;;;;;;;;;;5025191;28;20026;-77
2022/10/07 13:47:28;;;;;;;29.33;16.13;;;;;;;;;;5013001;28;20029;-75
2022/10/07 13:49:53;;;;;;;32.13;16.80;;;;;;;;;;4996681;28;20069;-75
2022/10/07 13:52:31;;;;;;;28.33;14.88;;;;;;;;;;4993827;28;20026;-77
2022/10/07 13:54:56;;;;;;;29.48;15.65;;;;;;;;;;5007401;28;20564;-75
2022/10/07 13:57:22;;;;;;;29.25;16.35;;;;;;;;;;5027456;28;20044;-75
2022/10/07 13:59:50;;;;;;;32.60;16.08;;;;;;;;;;4997116;28;20048;-76
2022/10/07 14:02:17;;;;;;;36.55;17.75;;;;;;;;;;5016588;28;20022;-73
2022/10/07 14:05:17;;;;;;;30.33;17.10;;;;;;;;;;5003349;28;20050;-75
2022/10/07 14:07:43;;;;;;;44.20;20.98;;;;;;;;;;5021254;28;20056;-74
2022/10/07 14:10:12;;;;;;;38.67;18.92;;;;;;;;;;5002994;28;20064;-76
2022/10/07 14:12:58;;;;;;;39.17;19.27;;;;;;;;;;5003131;28;20029;-77
2022/10/07 14:15:29;;;;;;;32.50;16.75;;;;;;;;;;5018352;28;20113;-74
2022/10/07 14:18:07;;;;;;;42.40;20.10;;;;;;;;;;5002444;28;20025;-77
2022/10/07 14:20:42;;;;;;;50.30;23.23;;;;;;;;;;4996810;28;20034;-78
2022/10/07 14:23:24;;;;;;;40.40;20.50;;;;;;;;;;5017272;28;20096;-78
2022/10/07 14:25:56;;;;;;;29.38;16.50;;;;;;;;;;5001132;28;20055;-78
2022/10/07 14:28:22;;;;;;;32.90;17.60;;;;;;;;;;5026499;28;20055;-76
2022/10/07 14:37:07;;;;;;;34.97;16.85;;;;;;;;;;5019980;28;20032;-77
2022/10/07 14:39:37;;;;;;;32.83;17.67;;;;;;;;;;5018781;28;20211;-77
2022/10/07 14:42:05;;;;;;;32.90;17.63;;;;;;;;;;5007129;28;20080;-77
2022/10/07 14:44:30;;;;;;;27.30;15.77;;;;;;;;;;5027923;28;20030;-77
2022/10/07 14:47:06;;;;;;;38.45;19.10;;;;;;;;;;5016749;28;20049;-77
2022/10/07 14:49:31;;;;;;;37.90;18.85;;;;;;;;;;5004104;28;20025;-78
2022/10/07 14:52:02;;;;;;;31.92;17.17;;;;;;;;;;4999838;28;20123;-77
2022/10/07 14:54:29;;;;;;;35.78;17.08;;;;;;;;;;4999459;28;20044;-77
2022/10/07 14:56:55;;;;;;;31.42;17.67;;;;;;;;;;4999838;28;20075;-76
2022/10/07 14:59:22;;;;;;;34.10;17.20;;;;;;;;;;5012754;28;20373;-76
2022/10/07 15:01:48;;;;;;;31.70;17.65;;;;;;;;;;5019303;28;20037;-77
2022/10/07 15:04:14;;;;;;;38.20;20.58;;;;;;;;;;5002940;28;20021;-77